createdAt,value
2022-12-03T00:01:55.560Z,17.88
2022-12-03T00:04:27.652Z,16.92
2022-12-03T00:06:59.598Z,19.75
2022-12-03T00:09:31.607Z,18.55
2022-12-03T00:12:03.764Z,17.83
2022-12-03T00:14:39.954Z,18.63
2022-12-03T00:17:14.925Z,18.67
2022-12-03T00:19:46.875Z,18.25
2022-12-03T00:22:18.890Z,17.80
2022-12-03T00:24:51.596Z,19.15
2022-12-03T00:27:23.861Z,17.30
2022-12-03T00:29:55.813Z,18.33
2022-12-03T00:32:27.896Z,18.08
2022-12-03T00:34:59.917Z,17.73
2022-12-03T00:37:31.923Z,17.52
2022-12-03T00:40:05.880Z,19.17
2022-12-03T00:42:37.810Z,17.52
2022-12-03T00:45:10.412Z,18.23
2022-12-03T00:47:42.392Z,18.55
2022-12-03T00:50:14.377Z,18.08
2022-12-03T00:52:46.489Z,18.98
2022-12-03T00:55:18.495Z,17.88
2022-12-03T00:57:50.493Z,17.77
2022-12-03T01:00:24.731Z,19.05
2022-12-03T01:02:56.667Z,19.73
2022-12-03T01:05:28.629Z,18.60
2022-12-03T01:08:00.611Z,17.60
2022-12-03T01:10:32.619Z,18.58
2022-12-03T01:13:04.599Z,18.88
2022-12-03T01:15:36.656Z,19.33
2022-12-03T01:18:08.652Z,19.05
2022-12-03T01:20:40.770Z,20.05
2022-12-03T01:23:12.736Z,21.23
2022-12-03T01:25:44.691Z,20.25
2022-12-03T01:28:16.661Z,19.75
2022-12-03T01:31:07.598Z,19.33
2022-12-03T01:33:39.601Z,20.60
2022-12-03T01:36:11.812Z,21.00
2022-12-03T01:38:43.791Z,20.20
2022-12-03T01:41:18.286Z,19.58
2022-12-03T01:43:51.552Z,18.88
2022-12-03T01:46:28.631Z,20.25
2022-12-03T01:49:01.047Z,20.38
2022-12-03T01:51:33.061Z,21.58
2022-12-03T01:54:05.206Z,21.55
2022-12-03T01:56:37.145Z,19.40
2022-12-03T01:59:14.390Z,31.58
2022-12-03T02:01:46.575Z,21.05
2022-12-03T02:04:21.959Z,21.52
2022-12-03T02:06:54.083Z,19.83
2022-12-03T02:09:26.051Z,19.20
2022-12-03T02:11:58.292Z,19.83
2022-12-03T02:14:30.240Z,20.55
2022-12-03T02:17:02.293Z,21.13
2022-12-03T02:19:34.664Z,19.92
2022-12-03T02:22:24.045Z,21.45
2022-12-03T02:25:32.280Z,20.77
2022-12-03T02:28:06.403Z,20.83
2022-12-03T02:30:38.456Z,20.05
2022-12-03T02:33:10.807Z,20.73
2022-12-03T02:35:42.920Z,20.23
2022-12-03T02:38:25.943Z,21.13
2022-12-03T02:41:04.290Z,21.30
2022-12-03T02:43:36.844Z,20.55
2022-12-03T02:46:09.381Z,20.75
2022-12-03T02:48:41.931Z,19.60
2022-12-03T02:51:13.967Z,23.17
2022-12-03T02:53:48.900Z,21.33
2022-12-03T02:56:27.892Z,21.20
2022-12-03T02:59:03.553Z,21.13
2022-12-03T03:01:35.567Z,22.30
2022-12-03T03:04:07.626Z,20.65
2022-12-03T03:06:39.588Z,21.05
2022-12-03T03:09:11.561Z,21.40
2022-12-03T03:11:43.613Z,22.00
2022-12-03T03:14:15.800Z,19.65
2022-12-03T03:16:55.841Z,21.65
2022-12-03T03:19:30.179Z,21.42
2022-12-03T03:22:02.219Z,21.27
2022-12-03T03:24:34.202Z,21.85
2022-12-03T03:27:06.556Z,20.98
2022-12-03T03:29:38.753Z,20.80
2022-12-03T03:32:10.750Z,21.70
2022-12-03T03:34:42.853Z,22.60
2022-12-03T03:37:14.833Z,21.83
2022-12-03T03:39:46.930Z,24.17
2022-12-03T03:42:19.133Z,23.02
2022-12-03T03:44:51.542Z,21.25
2022-12-03T03:47:24.147Z,23.95
2022-12-03T03:49:56.357Z,22.23
2022-12-03T03:52:28.570Z,24.45
2022-12-03T03:55:00.706Z,22.85
2022-12-03T03:57:33.085Z,23.80
2022-12-03T04:00:08.571Z,25.73
2022-12-03T04:02:41.797Z,22.55
2022-12-03T04:05:20.592Z,23.25
2022-12-03T04:07:52.746Z,24.42
2022-12-03T04:10:43.127Z,24.58
2022-12-03T04:15:46.977Z,24.73
2022-12-03T04:18:37.184Z,24.10
2022-12-03T04:21:37.176Z,22.67
2022-12-03T04:24:11.039Z,25.23
2022-12-03T04:27:01.397Z,22.88
2022-12-03T04:29:33.327Z,24.40
2022-12-03T04:32:24.063Z,21.80
2022-12-03T04:35:14.708Z,22.23
2022-12-03T04:37:46.719Z,24.58
2022-12-03T04:40:37.394Z,24.65
2022-12-03T04:43:09.358Z,24.50
2022-12-03T04:45:41.337Z,23.75
2022-12-03T04:48:13.315Z,22.55
2022-12-03T04:50:45.327Z,23.58
2022-12-03T04:53:17.521Z,22.38
2022-12-03T04:55:49.440Z,24.02
2022-12-03T04:58:21.424Z,24.08
2022-12-03T05:00:53.417Z,24.60
2022-12-03T05:03:25.401Z,23.33
2022-12-03T05:05:57.338Z,24.85
2022-12-03T05:08:29.300Z,23.70
2022-12-03T05:11:01.211Z,25.58
2022-12-03T05:13:33.175Z,23.40
2022-12-03T05:16:05.445Z,23.65
2022-12-03T05:18:37.453Z,24.70
2022-12-03T05:21:09.400Z,23.42
2022-12-03T05:23:42.413Z,24.48
2022-12-03T05:26:14.350Z,23.17
2022-12-03T05:28:46.342Z,25.25
2022-12-03T05:31:18.633Z,24.73
2022-12-03T05:33:50.681Z,26.58
2022-12-03T05:36:22.823Z,24.75
2022-12-03T05:38:54.780Z,24.77
2022-12-03T05:41:45.038Z,27.02
2022-12-03T05:46:52.826Z,25.65
2022-12-03T05:49:24.778Z,24.92
2022-12-03T05:51:58.603Z,25.88
2022-12-03T05:54:30.912Z,25.08
2022-12-03T05:57:02.931Z,27.05
2022-12-03T05:59:34.905Z,24.48
2022-12-03T06:02:06.915Z,26.20
2022-12-03T06:04:38.951Z,24.90
2022-12-03T06:07:13.976Z,26.85
2022-12-03T06:09:46.361Z,26.50
2022-12-03T06:12:18.367Z,26.92
2022-12-03T06:14:50.636Z,27.63
2022-12-03T06:17:22.778Z,27.30
2022-12-03T06:19:54.727Z,26.90
2022-12-03T06:22:27.061Z,26.42
2022-12-03T06:25:04.845Z,28.08
2022-12-03T06:27:38.769Z,28.48
2022-12-03T06:30:13.903Z,25.60
2022-12-03T06:32:45.820Z,26.50
2022-12-03T06:35:17.859Z,28.02
2022-12-03T06:37:49.845Z,26.42
2022-12-03T06:40:21.805Z,27.50
2022-12-03T06:42:53.750Z,26.30
2022-12-03T06:45:25.667Z,27.75
2022-12-03T06:47:57.583Z,28.60
2022-12-03T06:50:29.555Z,30.35
2022-12-03T06:53:02.245Z,27.83
2022-12-03T06:55:34.189Z,27.88
2022-12-03T06:58:06.141Z,27.73
2022-12-03T07:00:38.069Z,28.70
2022-12-03T07:03:10.114Z,28.65
2022-12-03T07:05:42.106Z,28.48
2022-12-03T07:08:14.145Z,28.95
2022-12-03T07:10:46.170Z,28.35
2022-12-03T07:13:18.101Z,28.95
2022-12-03T07:15:50.101Z,27.73
2022-12-03T07:18:22.153Z,27.50
2022-12-03T07:20:54.332Z,29.80
2022-12-03T07:23:26.299Z,29.05
2022-12-03T07:25:58.293Z,29.55
2022-12-03T07:28:30.254Z,28.35
2022-12-03T07:31:02.325Z,28.60
2022-12-03T07:33:34.303Z,28.55
2022-12-03T07:36:06.684Z,30.88
2022-12-03T07:38:38.764Z,29.90
2022-12-03T07:41:10.847Z,30.05
2022-12-03T07:43:42.819Z,28.58
2022-12-03T07:46:14.848Z,30.38
2022-12-03T07:48:46.858Z,28.17
2022-12-03T07:51:18.897Z,26.88
2022-12-03T07:53:50.848Z,28.95
2022-12-03T07:56:22.833Z,25.95
2022-12-03T07:58:54.834Z,27.33
2022-12-03T08:01:26.925Z,27.30
2022-12-03T08:03:58.955Z,31.15
2022-12-03T08:06:31.010Z,28.10
2022-12-03T08:09:03.011Z,30.58
2022-12-03T08:11:35.015Z,27.02
2022-12-03T08:14:17.121Z,28.67
2022-12-03T08:16:49.317Z,28.20
2022-12-03T08:19:21.363Z,30.40
2022-12-03T08:21:58.063Z,28.92
2022-12-03T08:24:33.066Z,30.15
2022-12-03T08:27:16.603Z,30.58
2022-12-03T08:29:48.552Z,28.92
2022-12-03T08:32:20.685Z,29.63
2022-12-03T08:34:52.952Z,31.10
2022-12-03T08:37:25.083Z,28.90
2022-12-03T08:39:57.065Z,30.17
2022-12-03T08:42:43.448Z,29.05
2022-12-03T08:45:40.286Z,30.00
2022-12-03T08:48:21.160Z,29.42
2022-12-03T08:50:59.501Z,29.90
2022-12-03T08:53:46.473Z,29.55
2022-12-03T08:56:29.189Z,30.20
2022-12-03T08:59:31.751Z,31.13
2022-12-03T09:02:18.991Z,29.20
2022-12-03T09:04:53.246Z,30.42
2022-12-03T09:07:25.460Z,29.05
2022-12-03T09:09:57.463Z,32.25
2022-12-03T09:12:29.368Z,31.17
2022-12-03T09:15:01.451Z,29.02
2022-12-03T09:17:34.439Z,28.95
2022-12-03T09:20:07.627Z,30.58
2022-12-03T09:22:39.563Z,29.15
2022-12-03T09:25:11.564Z,29.27
2022-12-03T09:27:43.710Z,30.08
2022-12-03T09:30:16.312Z,28.23
2022-12-03T09:32:48.249Z,30.00
2022-12-03T09:35:20.206Z,29.30
2022-12-03T09:37:52.457Z,32.35
2022-12-03T09:40:24.611Z,29.63
2022-12-03T09:42:58.711Z,29.45
2022-12-03T09:45:30.853Z,29.42
2022-12-03T09:48:04.823Z,31.05
2022-12-03T09:50:40.615Z,28.50
2022-12-03T09:53:20.083Z,29.35
2022-12-03T09:55:52.167Z,30.08
2022-12-03T09:58:31.725Z,28.60
2022-12-03T10:01:14.355Z,27.85
2022-12-03T10:03:50.506Z,28.65
2022-12-03T10:06:24.223Z,28.13
2022-12-03T10:08:56.480Z,29.90
2022-12-03T10:11:30.274Z,29.70
2022-12-03T10:14:02.311Z,28.88
2022-12-03T10:16:36.188Z,28.08
2022-12-03T10:19:23.056Z,28.42
2022-12-03T10:21:56.032Z,29.85
2022-12-03T10:24:29.041Z,28.15
2022-12-03T10:27:20.736Z,26.77
2022-12-03T10:30:02.126Z,27.33
2022-12-03T10:32:47.178Z,27.38
2022-12-03T10:35:26.988Z,28.00
2022-12-03T10:38:16.552Z,28.60
2022-12-03T10:40:48.780Z,27.65
2022-12-03T10:43:23.748Z,29.23
2022-12-03T10:46:04.140Z,26.63
2022-12-03T10:48:36.781Z,28.83
2022-12-03T10:51:22.491Z,27.08
2022-12-03T10:53:54.610Z,27.30
2022-12-03T10:56:27.848Z,25.75
2022-12-03T10:58:59.798Z,27.08
2022-12-03T11:01:32.413Z,27.20
2022-12-03T11:04:05.756Z,26.02
2022-12-03T11:06:37.800Z,28.48
2022-12-03T11:09:25.499Z,26.85
2022-12-03T11:12:05.059Z,25.58
2022-12-03T11:14:50.794Z,27.30
2022-12-03T11:17:50.032Z,25.80
2022-12-03T11:20:24.979Z,25.42
2022-12-03T11:22:58.684Z,26.17
2022-12-03T11:25:37.144Z,25.40
2022-12-03T11:28:12.175Z,25.05
2022-12-03T11:30:59.181Z,24.00
2022-12-03T11:33:41.600Z,25.05
2022-12-03T11:36:15.714Z,23.65
2022-12-03T11:38:54.172Z,24.90
2022-12-03T11:41:30.571Z,24.00
2022-12-03T11:44:31.551Z,23.52
2022-12-03T11:47:14.711Z,22.27
2022-12-03T11:49:48.766Z,21.38
2022-12-03T11:52:30.907Z,22.63
2022-12-03T11:55:37.444Z,22.33
2022-12-03T11:58:27.934Z,21.33
2022-12-03T12:01:02.811Z,21.98
2022-12-03T12:03:46.393Z,22.02
2022-12-03T12:06:21.159Z,22.73
2022-12-03T12:08:53.084Z,20.67
2022-12-03T12:11:37.310Z,20.80
2022-12-03T12:14:12.196Z,22.48
2022-12-03T12:16:51.476Z,22.45
2022-12-03T12:19:40.241Z,22.20
2022-12-03T12:22:18.189Z,21.25
2022-12-03T12:25:06.967Z,22.35
2022-12-03T12:27:45.669Z,21.90
2022-12-03T12:30:21.836Z,21.08
2022-12-03T12:33:10.325Z,21.15
2022-12-03T12:35:42.722Z,19.98
2022-12-03T12:38:20.859Z,20.13
2022-12-03T12:40:53.344Z,20.35
2022-12-03T12:43:33.889Z,18.63
2022-12-03T12:46:45.965Z,21.85
2022-12-03T12:49:12.273Z,24.70
2022-12-03T12:51:46.800Z,20.33
2022-12-03T12:54:19.000Z,18.55
2022-12-03T12:56:51.037Z,19.30
2022-12-03T12:59:24.541Z,20.40
2022-12-03T13:01:56.642Z,19.40
2022-12-03T13:04:30.803Z,19.55
2022-12-03T13:07:02.770Z,19.65
2022-12-03T13:09:34.713Z,18.83
2022-12-03T13:12:18.933Z,19.08
2022-12-03T13:14:52.331Z,17.13
2022-12-03T13:17:26.160Z,18.70
2022-12-03T13:20:07.283Z,19.70
2022-12-03T13:22:40.000Z,21.58
2022-12-03T13:28:30.901Z,21.92
2022-12-03T13:31:28.700Z,19.35
2022-12-03T13:34:02.329Z,19.13
2022-12-03T13:36:43.844Z,18.98
2022-12-03T13:39:35.489Z,21.83
2022-12-03T13:42:39.548Z,19.75
2022-12-03T13:45:14.741Z,21.40
2022-12-03T13:48:00.120Z,23.60
2022-12-03T13:50:40.598Z,21.00
2022-12-03T13:53:25.004Z,21.63
2022-12-03T13:56:32.842Z,20.27
2022-12-03T13:59:04.935Z,22.15
2022-12-03T14:01:37.099Z,21.80
2022-12-03T14:04:09.666Z,22.38
2022-12-03T14:06:41.694Z,22.25
2022-12-03T14:09:13.784Z,20.55
2022-12-03T14:12:04.106Z,21.48
2022-12-03T14:17:09.775Z,21.17
2022-12-03T14:19:41.958Z,23.45
2022-12-03T14:22:13.954Z,23.02
2022-12-03T14:24:46.021Z,21.38
2022-12-03T14:27:19.101Z,21.40
2022-12-03T14:29:52.438Z,20.55
2022-12-03T14:32:24.826Z,22.17
2022-12-03T14:34:56.929Z,23.17
2022-12-03T14:37:41.474Z,22.83
2022-12-03T14:40:19.606Z,23.65
2022-12-03T14:42:53.449Z,22.73
2022-12-03T14:45:27.753Z,20.90
2022-12-03T14:47:59.787Z,23.90
2022-12-03T14:50:31.789Z,24.08
2022-12-03T14:53:03.859Z,22.92
2022-12-03T14:55:36.126Z,23.52
2022-12-03T14:58:08.245Z,24.20
2022-12-03T15:00:40.195Z,24.45
2022-12-03T15:03:12.243Z,26.17
2022-12-03T15:05:44.375Z,24.08
2022-12-03T15:08:16.567Z,24.55
2022-12-03T15:10:52.093Z,24.50
2022-12-03T15:13:24.128Z,24.55
2022-12-03T15:15:56.285Z,25.30
2022-12-03T15:18:30.760Z,26.60
2022-12-03T15:21:02.769Z,24.50
2022-12-03T15:23:34.890Z,25.23
2022-12-03T15:26:07.093Z,25.95
2022-12-03T15:28:42.974Z,24.20
2022-12-03T15:31:17.485Z,24.83
2022-12-03T15:34:02.311Z,27.25
2022-12-03T15:36:34.279Z,25.42
2022-12-03T15:39:06.367Z,24.85
2022-12-03T15:41:38.583Z,27.55
2022-12-03T15:44:10.637Z,27.63
2022-12-03T15:46:42.772Z,24.55
2022-12-03T15:49:14.881Z,26.58
2022-12-03T15:51:47.444Z,26.63
2022-12-03T15:54:19.715Z,25.40
2022-12-03T15:56:57.028Z,26.70
2022-12-03T15:59:29.508Z,26.73
2022-12-03T16:02:01.796Z,27.92
2022-12-03T16:04:33.861Z,29.10
2022-12-03T16:07:05.826Z,28.17
2022-12-03T16:09:37.916Z,28.00
2022-12-03T16:12:09.911Z,27.73
2022-12-03T16:14:41.929Z,26.40
2022-12-03T16:17:13.968Z,27.13
2022-12-03T16:19:46.687Z,28.13
2022-12-03T16:22:18.746Z,26.58
2022-12-03T16:24:50.762Z,29.23
2022-12-03T16:27:25.665Z,31.35
2022-12-03T16:29:58.165Z,28.38
2022-12-03T16:32:30.177Z,28.85
2022-12-03T16:35:02.377Z,29.00
2022-12-03T16:37:34.413Z,27.70
2022-12-03T16:40:07.557Z,30.50
2022-12-03T16:42:39.709Z,29.20
2022-12-03T16:45:30.070Z,29.52
2022-12-03T16:48:02.534Z,31.85
2022-12-03T16:50:37.789Z,30.35
2022-12-03T16:53:17.576Z,33.17
2022-12-03T16:55:49.550Z,32.13
2022-12-03T16:58:21.679Z,32.38
2022-12-03T17:00:54.362Z,31.88
2022-12-03T17:03:33.656Z,31.48
2022-12-03T17:06:06.515Z,32.17
2022-12-03T17:08:38.483Z,32.90
2022-12-03T17:11:10.632Z,33.15
2022-12-03T17:13:42.611Z,32.78
2022-12-03T17:16:14.816Z,34.42
2022-12-03T17:18:46.889Z,32.30
2022-12-03T17:21:18.843Z,34.63
2022-12-03T17:23:51.165Z,32.92
2022-12-03T17:26:23.252Z,33.08
2022-12-03T17:28:55.239Z,34.25
2022-12-03T17:31:27.351Z,36.53
2022-12-03T17:33:59.450Z,34.58
2022-12-03T17:36:31.408Z,33.85
2022-12-03T17:39:03.649Z,33.78
2022-12-03T17:41:35.649Z,33.60
2022-12-03T17:44:11.386Z,33.08
2022-12-03T17:46:45.184Z,32.45
2022-12-03T17:49:17.382Z,34.17
2022-12-03T17:51:50.397Z,32.55
2022-12-03T17:54:22.733Z,33.08
2022-12-03T17:56:54.825Z,30.67
2022-12-03T17:59:26.970Z,29.92
2022-12-03T18:01:59.053Z,30.60
2022-12-03T18:04:31.101Z,31.38
2022-12-03T18:07:03.247Z,33.20
2022-12-03T18:09:35.339Z,32.42
2022-12-03T18:12:07.553Z,33.88
2022-12-03T18:14:39.525Z,32.00
2022-12-03T18:17:11.477Z,31.08
2022-12-03T18:19:43.455Z,30.80
2022-12-03T18:22:15.898Z,32.72
2022-12-03T18:24:51.543Z,31.48
2022-12-03T18:27:24.838Z,31.77
2022-12-03T18:29:57.467Z,32.80
2022-12-03T18:32:30.105Z,28.00
2022-12-03T18:35:02.315Z,27.88
2022-12-03T18:37:34.609Z,32.78
2022-12-03T18:40:13.197Z,30.15
2022-12-03T18:42:46.032Z,30.88
2022-12-03T18:45:18.376Z,31.85
2022-12-03T18:47:50.580Z,30.48
2022-12-03T18:50:22.605Z,31.25
2022-12-03T18:52:54.569Z,31.48
2022-12-03T18:55:33.756Z,31.02
2022-12-03T18:58:05.821Z,30.70
2022-12-03T19:00:38.919Z,30.88
2022-12-03T19:03:11.184Z,32.85
2022-12-03T19:05:43.159Z,34.85
2022-12-03T19:08:15.486Z,32.58
2022-12-03T19:10:59.440Z,32.38
2022-12-03T19:13:31.512Z,32.35
2022-12-03T19:16:04.833Z,31.30
2022-12-03T19:18:37.014Z,31.20
2022-12-03T19:21:15.504Z,32.22
2022-12-03T19:24:22.221Z,33.13
2022-12-03T19:26:39.837Z,33.78
2022-12-03T19:29:12.141Z,36.42
2022-12-03T19:31:44.111Z,32.60
2022-12-03T19:34:16.638Z,33.20
2022-12-03T19:36:48.635Z,37.42
2022-12-03T19:39:20.625Z,33.80
2022-12-03T19:41:52.573Z,34.08
2022-12-03T19:44:24.881Z,31.88
2022-12-03T19:46:57.421Z,34.85
2022-12-03T19:49:29.533Z,33.88
2022-12-03T19:52:01.549Z,31.25
2022-12-03T19:54:33.592Z,32.35
2022-12-03T19:57:05.536Z,32.85
2022-12-03T19:59:37.508Z,32.65
2022-12-03T20:02:12.607Z,31.63
2022-12-03T20:04:44.659Z,33.90
2022-12-03T20:07:17.070Z,35.03
2022-12-03T20:09:51.631Z,36.53
2022-12-03T20:12:23.815Z,35.03
2022-12-03T20:14:55.829Z,33.22
2022-12-03T20:17:27.732Z,32.67
2022-12-03T20:19:59.707Z,31.58
2022-12-03T20:22:31.624Z,32.53
2022-12-03T20:25:04.076Z,34.42
2022-12-03T20:27:36.469Z,34.95
2022-12-03T20:30:09.132Z,33.00
2022-12-03T20:32:45.249Z,31.38
2022-12-03T20:35:17.734Z,33.78
2022-12-03T20:37:49.696Z,33.28
2022-12-03T20:40:21.705Z,33.45
2022-12-03T20:42:53.774Z,36.17
2022-12-03T20:45:27.008Z,34.47
2022-12-03T20:47:59.077Z,32.83
2022-12-03T20:50:31.085Z,37.08
2022-12-03T20:53:23.753Z,36.75
2022-12-03T20:55:56.929Z,35.22
2022-12-03T20:58:30.633Z,35.47
2022-12-03T21:01:21.192Z,33.85
2022-12-03T21:03:55.496Z,35.33
2022-12-03T21:06:30.030Z,32.65
2022-12-03T21:09:04.657Z,32.85
2022-12-03T21:11:40.205Z,30.77
2022-12-03T21:14:12.566Z,35.85
2022-12-03T21:17:07.861Z,35.65
2022-12-03T21:19:40.951Z,33.63
2022-12-03T21:22:13.023Z,36.38
2022-12-03T21:24:45.189Z,32.83
2022-12-03T21:27:21.552Z,34.35
2022-12-03T21:29:54.627Z,34.15
2022-12-03T21:32:26.718Z,35.83
2022-12-03T21:34:58.673Z,35.15
2022-12-03T21:37:30.639Z,36.15
2022-12-03T21:40:02.579Z,36.80
2022-12-03T21:42:37.199Z,37.20
2022-12-03T21:45:09.979Z,37.85
2022-12-03T21:47:42.003Z,41.78
2022-12-03T21:50:14.878Z,42.47
2022-12-03T21:52:46.947Z,37.35
2022-12-03T21:55:18.932Z,37.30
2022-12-03T21:57:50.968Z,37.20
2022-12-03T22:00:32.665Z,36.60
2022-12-03T22:03:05.067Z,39.47
2022-12-03T22:05:39.046Z,39.80
2022-12-03T22:08:11.124Z,38.15
2022-12-03T22:10:45.295Z,40.40
2022-12-03T22:13:17.380Z,37.40
2022-12-03T22:15:49.420Z,37.47
2022-12-03T22:18:21.573Z,38.72
2022-12-03T22:20:53.647Z,36.53
2022-12-03T22:23:25.632Z,37.63
2022-12-03T22:26:09.094Z,37.42
2022-12-03T22:28:50.030Z,36.92
2022-12-03T22:31:22.017Z,37.17
2022-12-03T22:33:54.074Z,36.42
2022-12-03T22:36:25.985Z,37.00
2022-12-03T22:38:58.427Z,38.65
2022-12-03T22:41:30.379Z,48.75
2022-12-03T22:44:02.607Z,37.38
2022-12-03T22:46:34.587Z,36.80
2022-12-03T22:49:07.608Z,36.38
2022-12-03T22:51:40.139Z,36.05
2022-12-03T22:54:12.640Z,35.78
2022-12-03T22:56:44.767Z,37.67
2022-12-03T22:59:16.763Z,38.47
2022-12-03T23:01:48.907Z,42.10
2022-12-03T23:04:21.634Z,37.58
2022-12-03T23:06:53.650Z,35.75
2022-12-03T23:09:25.679Z,38.60
2022-12-03T23:11:57.623Z,36.35
2022-12-03T23:14:29.558Z,37.53
2022-12-03T23:17:01.520Z,36.08
2022-12-03T23:19:33.530Z,34.53
2022-12-03T23:22:05.511Z,37.38
2022-12-03T23:24:37.478Z,35.17
2022-12-03T23:27:09.532Z,35.20
2022-12-03T23:29:41.508Z,36.25
2022-12-03T23:32:13.484Z,33.88
2022-12-03T23:34:45.639Z,35.35
2022-12-03T23:37:17.677Z,35.05
2022-12-03T23:39:54.431Z,36.75
2022-12-03T23:42:26.601Z,34.88
2022-12-03T23:44:58.645Z,33.80
2022-12-03T23:47:31.310Z,33.70
2022-12-03T23:50:04.980Z,40.90
2022-12-03T23:52:37.046Z,41.67
2022-12-03T23:55:10.626Z,48.80
2022-12-03T23:57:42.586Z,33.72
